sensor_id;sensor_type;location;lat;lon;timestamp;pressure;altitude;pressure_sealevel;temperature;humidity
9676;BME280;4876;42.656;23.292;2024-02-26T00:01:48;93952.28;;;7.88;74.58
9676;BME280;4876;42.656;23.292;2024-02-26T00:04:14;93951.94;;;7.94;73.44
9676;BME280;4876;42.656;23.292;2024-02-26T00:06:39;93958.59;;;8.00;73.16
9676;BME280;4876;42.656;23.292;2024-02-26T00:09:11;93940.38;;;7.86;73.31
9676;BME280;4876;42.656;23.292;2024-02-26T00:11:37;93942.06;;;7.79;73.25
9676;BME280;4876;42.656;23.292;2024-02-26T00:14:03;93946.13;;;7.78;74.14
9676;BME280;4876;42.656;23.292;2024-02-26T00:16:29;93946.56;;;7.75;74.47
9676;BME280;4876;42.656;23.292;2024-02-26T00:18:54;93943.69;;;7.73;75.01
9676;BME280;4876;42.656;23.292;2024-02-26T00:21:20;93951.19;;;7.82;74.30
9676;BME280;4876;42.656;23.292;2024-02-26T00:23:45;93948.63;;;7.74;74.18
9676;BME280;4876;42.656;23.292;2024-02-26T00:26:11;93944.16;;;7.69;74.66
9676;BME280;4876;42.656;23.292;2024-02-26T00:28:37;93948.50;;;7.72;74.55
9676;BME280;4876;42.656;23.292;2024-02-26T00:31:02;93940.59;;;7.78;74.03
9676;BME280;4876;42.656;23.292;2024-02-26T00:33:28;93936.78;;;7.83;74.41
9676;BME280;4876;42.656;23.292;2024-02-26T00:35:54;93935.59;;;7.86;74.02
9676;BME280;4876;42.656;23.292;2024-02-26T00:38:19;93924.09;;;7.90;73.89
9676;BME280;4876;42.656;23.292;2024-02-26T00:40:46;93925.19;;;7.96;73.45
9676;BME280;4876;42.656;23.292;2024-02-26T00:43:12;93915.09;;;8.01;73.33
9676;BME280;4876;42.656;23.292;2024-02-26T00:45:37;93909.09;;;8.05;74.23
9676;BME280;4876;42.656;23.292;2024-02-26T00:48:03;93910.22;;;8.11;73.71
9676;BME280;4876;42.656;23.292;2024-02-26T00:50:34;93914.53;;;8.14;73.49
9676;BME280;4876;42.656;23.292;2024-02-26T00:53:01;93909.38;;;8.20;72.83
9676;BME280;4876;42.656;23.292;2024-02-26T00:55:26;93913.00;;;8.23;73.33
9676;BME280;4876;42.656;23.292;2024-02-26T00:57:52;93903.50;;;8.26;72.46
9676;BME280;4876;42.656;23.292;2024-02-26T01:00:17;93903.66;;;8.28;72.34
9676;BME280;4876;42.656;23.292;2024-02-26T01:02:43;93906.53;;;8.30;72.40
9676;BME280;4876;42.656;23.292;2024-02-26T01:05:12;93899.47;;;8.27;73.08
9676;BME280;4876;42.656;23.292;2024-02-26T01:07:37;93901.22;;;8.22;72.93
9676;BME280;4876;42.656;23.292;2024-02-26T01:10:03;93900.13;;;8.16;72.87
9676;BME280;4876;42.656;23.292;2024-02-26T01:12:29;93899.19;;;8.23;73.46
9676;BME280;4876;42.656;23.292;2024-02-26T01:14:55;93893.66;;;8.23;72.85
9676;BME280;4876;42.656;23.292;2024-02-26T01:17:20;93898.72;;;8.26;73.31
9676;BME280;4876;42.656;23.292;2024-02-26T01:19:46;93892.03;;;8.29;73.61
9676;BME280;4876;42.656;23.292;2024-02-26T01:22:11;93901.38;;;8.36;73.31
9676;BME280;4876;42.656;23.292;2024-02-26T01:24:37;93905.72;;;8.39;72.83
9676;BME280;4876;42.656;23.292;2024-02-26T01:27:02;93902.22;;;8.38;72.92
9676;BME280;4876;42.656;23.292;2024-02-26T01:29:28;93890.72;;;8.42;72.87
9676;BME280;4876;42.656;23.292;2024-02-26T01:31:53;93887.69;;;8.38;72.59
9676;BME280;4876;42.656;23.292;2024-02-26T01:34:20;93882.66;;;8.46;72.38
9676;BME280;4876;42.656;23.292;2024-02-26T01:36:46;93889.25;;;8.41;72.20
9676;BME280;4876;42.656;23.292;2024-02-26T01:39:11;93893.66;;;8.23;72.96
9676;BME280;4876;42.656;23.292;2024-02-26T01:41:39;93878.88;;;8.18;73.07
9676;BME280;4876;42.656;23.292;2024-02-26T01:44:05;93892.59;;;8.28;72.64
9676;BME280;4876;42.656;23.292;2024-02-26T01:46:33;93886.50;;;8.29;73.04
9676;BME280;4876;42.656;23.292;2024-02-26T01:49:01;93886.72;;;8.33;72.59
9676;BME280;4876;42.656;23.292;2024-02-26T01:51:27;93886.00;;;8.33;72.70
9676;BME280;4876;42.656;23.292;2024-02-26T01:53:54;93880.25;;;8.29;73.51
9676;BME280;4876;42.656;23.292;2024-02-26T01:56:20;93879.41;;;8.38;73.39
9676;BME280;4876;42.656;23.292;2024-02-26T01:58:46;93886.75;;;8.45;72.07
9676;BME280;4876;42.656;23.292;2024-02-26T02:01:15;93884.81;;;8.36;72.61
9676;BME280;4876;42.656;23.292;2024-02-26T02:03:42;93876.03;;;8.28;72.98
9676;BME280;4876;42.656;23.292;2024-02-26T02:06:09;93874.38;;;8.34;73.17
9676;BME280;4876;42.656;23.292;2024-02-26T02:08:35;93877.13;;;8.46;73.17
9676;BME280;4876;42.656;23.292;2024-02-26T02:11:00;93881.06;;;8.43;72.44
9676;BME280;4876;42.656;23.292;2024-02-26T02:13:26;93873.50;;;8.43;73.05
9676;BME280;4876;42.656;23.292;2024-02-26T02:15:52;93865.59;;;8.38;73.19
9676;BME280;4876;42.656;23.292;2024-02-26T02:18:18;93879.41;;;8.38;72.97
9676;BME280;4876;42.656;23.292;2024-02-26T02:20:44;93873.75;;;8.36;73.73
9676;BME280;4876;42.656;23.292;2024-02-26T02:23:10;93883.13;;;8.31;73.96
9676;BME280;4876;42.656;23.292;2024-02-26T02:25:35;93874.38;;;8.34;73.80
9676;BME280;4876;42.656;23.292;2024-02-26T02:28:01;93865.09;;;8.41;73.63
9676;BME280;4876;42.656;23.292;2024-02-26T02:30:29;93873.16;;;8.49;73.23
9676;BME280;4876;42.656;23.292;2024-02-26T02:32:55;93864.13;;;8.48;73.05
9676;BME280;4876;42.656;23.292;2024-02-26T02:35:22;93867.53;;;8.47;73.32
9676;BME280;4876;42.656;23.292;2024-02-26T02:37:48;93861.28;;;8.58;72.39
9676;BME280;4876;42.656;23.292;2024-02-26T02:40:14;93876.78;;;8.40;73.76
9676;BME280;4876;42.656;23.292;2024-02-26T02:42:39;93877.81;;;8.23;74.43
9676;BME280;4876;42.656;23.292;2024-02-26T02:45:05;93873.13;;;8.26;74.32
9676;BME280;4876;42.656;23.292;2024-02-26T02:47:31;93869.19;;;8.29;74.25
9676;BME280;4876;42.656;23.292;2024-02-26T02:49:56;93885.66;;;8.38;73.91
9676;BME280;4876;42.656;23.292;2024-02-26T02:52:22;93883.13;;;8.31;73.98
9676;BME280;4876;42.656;23.292;2024-02-26T02:54:47;93892.72;;;8.30;74.24
9676;BME280;4876;42.656;23.292;2024-02-26T02:57:13;93896.41;;;8.23;74.84
9676;BME280;4876;42.656;23.292;2024-02-26T02:59:39;93888.75;;;8.33;74.19
9676;BME280;4876;42.656;23.292;2024-02-26T03:02:04;93876.78;;;8.40;74.02
9676;BME280;4876;42.656;23.292;2024-02-26T03:04:30;93880.03;;;8.48;73.62
9676;BME280;4876;42.656;23.292;2024-02-26T03:06:55;93887.47;;;8.57;72.78
9676;BME280;4876;42.656;23.292;2024-02-26T03:09:21;93885.31;;;8.55;73.59
9676;BME280;4876;42.656;23.292;2024-02-26T03:11:46;93885.31;;;8.55;73.64
9676;BME280;4876;42.656;23.292;2024-02-26T03:14:12;93894.91;;;8.54;72.67
9676;BME280;4876;42.656;23.292;2024-02-26T03:16:37;93889.38;;;8.43;73.75
9676;BME280;4876;42.656;23.292;2024-02-26T03:19:03;93889.97;;;8.41;73.97
9676;BME280;4876;42.656;23.292;2024-02-26T03:21:29;93882.91;;;8.50;73.30
9676;BME280;4876;42.656;23.292;2024-02-26T03:23:54;93881.09;;;8.54;72.48
9676;BME280;4876;42.656;23.292;2024-02-26T03:26:20;93870.66;;;8.53;72.78
9676;BME280;4876;42.656;23.292;2024-02-26T03:28:47;93870.41;;;8.49;73.08
9676;BME280;4876;42.656;23.292;2024-02-26T03:31:12;93864.50;;;8.43;73.75
9676;BME280;4876;42.656;23.292;2024-02-26T03:33:38;93865.53;;;8.15;74.71
9676;BME280;4876;42.656;23.292;2024-02-26T03:36:04;93859.56;;;8.30;73.78
9676;BME280;4876;42.656;23.292;2024-02-26T03:38:29;93866.81;;;8.35;73.40
9676;BME280;4876;42.656;23.292;2024-02-26T03:40:55;93855.38;;;8.40;73.54
9676;BME280;4876;42.656;23.292;2024-02-26T03:43:21;93859.94;;;8.47;72.57
9676;BME280;4876;42.656;23.292;2024-02-26T03:45:46;93868.59;;;8.42;73.07
9676;BME280;4876;42.656;23.292;2024-02-26T03:48:12;93869.41;;;8.33;73.86
9676;BME280;4876;42.656;23.292;2024-02-26T03:50:37;93851.53;;;8.34;73.70
9676;BME280;4876;42.656;23.292;2024-02-26T03:53:03;93857.41;;;8.28;73.57
9676;BME280;4876;42.656;23.292;2024-02-26T03:55:29;93857.06;;;8.34;73.38
9676;BME280;4876;42.656;23.292;2024-02-26T03:57:54;93856.44;;;8.35;73.58
9676;BME280;4876;42.656;23.292;2024-02-26T04:00:20;93856.16;;;8.20;74.47
9676;BME280;4876;42.656;23.292;2024-02-26T04:02:49;93860.97;;;8.08;74.36
9676;BME280;4876;42.656;23.292;2024-02-26T04:05:14;93850.03;;;8.10;74.57
9676;BME280;4876;42.656;23.292;2024-02-26T04:07:40;93848.50;;;8.18;75.09
9676;BME280;4876;42.656;23.292;2024-02-26T04:10:10;93854.50;;;8.26;74.00
9676;BME280;4876;42.656;23.292;2024-02-26T04:12:36;93855.09;;;8.25;74.13
9676;BME280;4876;42.656;23.292;2024-02-26T04:15:03;93857.13;;;8.13;74.50
9676;BME280;4876;42.656;23.292;2024-02-26T04:17:29;93851.13;;;8.16;74.21
9676;BME280;4876;42.656;23.292;2024-02-26T04:19:55;93844.66;;;8.23;74.01
9676;BME280;4876;42.656;23.292;2024-02-26T04:22:20;93840.84;;;8.28;73.78
9676;BME280;4876;42.656;23.292;2024-02-26T04:24:46;93847.31;;;8.33;73.46
9676;BME280;4876;42.656;23.292;2024-02-26T04:27:11;93847.56;;;8.37;74.03
9676;BME280;4876;42.656;23.292;2024-02-26T04:29:37;93838.66;;;8.38;73.88
9676;BME280;4876;42.656;23.292;2024-02-26T04:32:03;93830.03;;;8.44;73.02
9676;BME280;4876;42.656;23.292;2024-02-26T04:34:29;93837.00;;;8.45;73.60
9676;BME280;4876;42.656;23.292;2024-02-26T04:36:54;93840.34;;;8.43;74.11
9676;BME280;4876;42.656;23.292;2024-02-26T04:39:20;93830.75;;;8.33;74.45
9676;BME280;4876;42.656;23.292;2024-02-26T04:41:46;93844.56;;;8.33;73.91
9676;BME280;4876;42.656;23.292;2024-02-26T04:44:11;93841.78;;;8.33;74.48
9676;BME280;4876;42.656;23.292;2024-02-26T04:46:37;93840.84;;;8.40;73.71
9676;BME280;4876;42.656;23.292;2024-02-26T04:49:02;93839.41;;;8.39;73.75
9676;BME280;4876;42.656;23.292;2024-02-26T04:51:28;93839.16;;;8.46;73.19
9676;BME280;4876;42.656;23.292;2024-02-26T04:53:53;93851.16;;;8.51;73.19
9676;BME280;4876;42.656;23.292;2024-02-26T04:56:21;93861.28;;;8.35;73.63
9676;BME280;4876;42.656;23.292;2024-02-26T04:58:47;93855.50;;;8.31;73.78
9676;BME280;4876;42.656;23.292;2024-02-26T05:01:12;93850.22;;;8.35;73.97
9676;BME280;4876;42.656;23.292;2024-02-26T05:03:42;93855.25;;;8.38;74.12
9676;BME280;4876;42.656;23.292;2024-02-26T05:06:08;93864.38;;;8.41;74.18
9676;BME280;4876;42.656;23.292;2024-02-26T05:08:34;93871.09;;;8.38;73.99
9676;BME280;4876;42.656;23.292;2024-02-26T05:11:01;93868.59;;;8.42;74.27
9676;BME280;4876;42.656;23.292;2024-02-26T05:13:28;93873.03;;;8.47;74.26
9676;BME280;4876;42.656;23.292;2024-02-26T05:15:54;93874.97;;;8.44;73.76
9676;BME280;4876;42.656;23.292;2024-02-26T05:18:21;93881.22;;;8.45;74.00
9676;BME280;4876;42.656;23.292;2024-02-26T05:20:47;93881.19;;;8.33;74.75
9676;BME280;4876;42.656;23.292;2024-02-26T05:23:13;93891.78;;;8.37;74.29
9676;BME280;4876;42.656;23.292;2024-02-26T05:25:38;93885.66;;;8.27;74.85
9676;BME280;4876;42.656;23.292;2024-02-26T05:28:04;93886.56;;;8.20;75.48
9676;BME280;4876;42.656;23.292;2024-02-26T05:30:29;93892.88;;;8.32;75.11
9676;BME280;4876;42.656;23.292;2024-02-26T05:32:55;93904.88;;;8.36;75.14
9676;BME280;4876;42.656;23.292;2024-02-26T05:35:20;93905.22;;;8.31;74.74
9676;BME280;4876;42.656;23.292;2024-02-26T05:37:46;93903.06;;;8.41;74.78
9676;BME280;4876;42.656;23.292;2024-02-26T05:40:12;93910.56;;;8.17;75.37
9676;BME280;4876;42.656;23.292;2024-02-26T05:42:37;93921.41;;;8.25;75.88
9676;BME280;4876;42.656;23.292;2024-02-26T05:45:03;93919.16;;;8.33;75.15
9676;BME280;4876;42.656;23.292;2024-02-26T05:47:34;93917.72;;;8.32;75.87
9676;BME280;4876;42.656;23.292;2024-02-26T05:49:59;93901.75;;;8.42;75.79
9676;BME280;4876;42.656;23.292;2024-02-26T05:52:26;93908.72;;;8.43;75.54
9676;BME280;4876;42.656;23.292;2024-02-26T05:54:53;93911.28;;;8.50;75.31
9676;BME280;4876;42.656;23.292;2024-02-26T05:57:18;93916.66;;;8.60;75.26
9676;BME280;4876;42.656;23.292;2024-02-26T05:59:44;93915.34;;;8.61;75.23
9676;BME280;4876;42.656;23.292;2024-02-26T06:02:09;93915.84;;;8.69;74.88
9676;BME280;4876;42.656;23.292;2024-02-26T06:04:35;93917.75;;;8.78;74.70
9676;BME280;4876;42.656;23.292;2024-02-26T06:07:00;93920.66;;;8.69;74.77
9676;BME280;4876;42.656;23.292;2024-02-26T06:09:26;93922.19;;;8.48;75.97
9676;BME280;4876;42.656;23.292;2024-02-26T06:11:51;93928.69;;;8.53;75.51
9676;BME280;4876;42.656;23.292;2024-02-26T06:14:17;93925.34;;;8.66;74.76
9676;BME280;4876;42.656;23.292;2024-02-26T06:16:44;93930.72;;;8.64;74.82
9676;BME280;4876;42.656;23.292;2024-02-26T06:19:10;93922.19;;;8.60;74.91
9676;BME280;4876;42.656;23.292;2024-02-26T06:21:36;93924.00;;;8.55;74.84
9676;BME280;4876;42.656;23.292;2024-02-26T06:24:01;93926.03;;;8.55;75.30
9676;BME280;4876;42.656;23.292;2024-02-26T06:26:27;93932.88;;;8.42;75.53
9676;BME280;4876;42.656;23.292;2024-02-26T06:28:55;93929.84;;;8.27;76.18
9676;BME280;4876;42.656;23.292;2024-02-26T06:31:21;93925.84;;;8.18;76.77
9676;BME280;4876;42.656;23.292;2024-02-26T06:33:48;93923.72;;;7.95;77.98
9676;BME280;4876;42.656;23.292;2024-02-26T06:36:15;93931.75;;;7.91;78.27
9676;BME280;4876;42.656;23.292;2024-02-26T06:38:41;93928.56;;;8.07;77.84
9676;BME280;4876;42.656;23.292;2024-02-26T06:41:07;93930.75;;;8.08;77.38
9676;BME280;4876;42.656;23.292;2024-02-26T06:43:43;93929.41;;;8.09;77.29
9676;BME280;4876;42.656;23.292;2024-02-26T06:46:09;93932.00;;;7.95;78.40
9676;BME280;4876;42.656;23.292;2024-02-26T06:48:34;93934.91;;;7.97;78.61
9676;BME280;4876;42.656;23.292;2024-02-26T06:51:02;93931.53;;;7.87;77.77
9676;BME280;4876;42.656;23.292;2024-02-26T06:53:27;93935.66;;;7.98;77.19
9676;BME280;4876;42.656;23.292;2024-02-26T06:55:53;93937.03;;;7.87;76.64
9676;BME280;4876;42.656;23.292;2024-02-26T06:58:19;93934.00;;;7.83;77.83
9676;BME280;4876;42.656;23.292;2024-02-26T07:00:44;93921.41;;;7.80;77.28
9676;BME280;4876;42.656;23.292;2024-02-26T07:03:11;93932.44;;;7.80;77.27
9676;BME280;4876;42.656;23.292;2024-02-26T07:05:37;93936.38;;;7.77;77.57
9676;BME280;4876;42.656;23.292;2024-02-26T07:08:02;93926.91;;;7.80;77.38
9676;BME280;4876;42.656;23.292;2024-02-26T07:10:28;93936.81;;;7.95;76.45
9676;BME280;4876;42.656;23.292;2024-02-26T07:12:53;93942.72;;;8.01;76.22
9676;BME280;4876;42.656;23.292;2024-02-26T07:15:19;93949.56;;;8.00;76.29
9676;BME280;4876;42.656;23.292;2024-02-26T07:17:44;93947.66;;;8.02;75.59
9676;BME280;4876;42.656;23.292;2024-02-26T07:20:13;93952.97;;;8.10;75.62
9676;BME280;4876;42.656;23.292;2024-02-26T07:22:39;93951.78;;;8.13;75.29
9676;BME280;4876;42.656;23.292;2024-02-26T07:25:05;93958.53;;;8.22;75.59
9676;BME280;4876;42.656;23.292;2024-02-26T07:27:33;93957.88;;;8.12;75.61
9676;BME280;4876;42.656;23.292;2024-02-26T07:29:58;93943.25;;;7.76;77.67
9676;BME280;4876;42.656;23.292;2024-02-26T07:32:24;93945.44;;;7.89;77.49
9676;BME280;4876;42.656;23.292;2024-02-26T07:34:49;93950.19;;;8.10;76.88
9676;BME280;4876;42.656;23.292;2024-02-26T07:37:15;93953.53;;;8.09;77.12
9676;BME280;4876;42.656;23.292;2024-02-26T07:39:41;93951.97;;;8.38;75.12
9676;BME280;4876;42.656;23.292;2024-02-26T07:42:06;93955.81;;;8.33;75.28
9676;BME280;4876;42.656;23.292;2024-02-26T07:44:33;93948.88;;;8.11;75.96
9676;BME280;4876;42.656;23.292;2024-02-26T07:46:58;93949.56;;;8.00;75.84
9676;BME280;4876;42.656;23.292;2024-02-26T07:49:24;93947.13;;;8.27;75.84
9676;BME280;4876;42.656;23.292;2024-02-26T07:51:49;93945.03;;;8.49;74.79
9676;BME280;4876;42.656;23.292;2024-02-26T07:54:15;93943.72;;;8.73;72.68
9676;BME280;4876;42.656;23.292;2024-02-26T07:56:41;93948.78;;;9.00;71.73
9676;BME280;4876;42.656;23.292;2024-02-26T07:59:07;93948.63;;;8.75;73.61
9676;BME280;4876;42.656;23.292;2024-02-26T08:01:33;93941.56;;;8.83;73.31
9676;BME280;4876;42.656;23.292;2024-02-26T08:03:59;93936.75;;;8.95;72.95
9676;BME280;4876;42.656;23.292;2024-02-26T08:06:25;93935.78;;;9.02;73.15
9676;BME280;4876;42.656;23.292;2024-02-26T08:08:50;93935.84;;;9.39;71.40
9676;BME280;4876;42.656;23.292;2024-02-26T08:11:16;93930.22;;;9.26;71.86
9676;BME280;4876;42.656;23.292;2024-02-26T08:13:42;93938.38;;;9.47;72.05
9676;BME280;4876;42.656;23.292;2024-02-26T08:16:07;93931.88;;;9.42;71.44
9676;BME280;4876;42.656;23.292;2024-02-26T08:18:33;93932.66;;;9.68;69.92
9676;BME280;4876;42.656;23.292;2024-02-26T08:20:58;93938.81;;;9.66;70.84
9676;BME280;4876;42.656;23.292;2024-02-26T08:23:24;93933.84;;;10.02;69.20
9676;BME280;4876;42.656;23.292;2024-02-26T08:25:50;93939.03;;;10.32;67.84
9676;BME280;4876;42.656;23.292;2024-02-26T08:28:16;93937.47;;;10.29;68.29
9676;BME280;4876;42.656;23.292;2024-02-26T08:30:43;93934.03;;;10.42;67.33
9676;BME280;4876;42.656;23.292;2024-02-26T08:33:09;93928.63;;;10.58;68.11
9676;BME280;4876;42.656;23.292;2024-02-26T08:35:35;93923.06;;;10.58;67.41
9676;BME280;4876;42.656;23.292;2024-02-26T08:38:01;93934.25;;;10.60;67.98
9676;BME280;4876;42.656;23.292;2024-02-26T08:40:27;93935.13;;;10.90;67.07
9676;BME280;4876;42.656;23.292;2024-02-26T08:42:52;93943.25;;;10.99;66.77
9676;BME280;4876;42.656;23.292;2024-02-26T08:45:18;93936.69;;;11.20;66.92
9676;BME280;4876;42.656;23.292;2024-02-26T08:47:45;93941.81;;;11.39;65.21
9676;BME280;4876;42.656;23.292;2024-02-26T08:50:10;93938.22;;;11.23;66.04
9676;BME280;4876;42.656;23.292;2024-02-26T08:52:37;93928.25;;;11.18;65.73
9676;BME280;4876;42.656;23.292;2024-02-26T08:55:03;93932.47;;;11.19;65.90
9676;BME280;4876;42.656;23.292;2024-02-26T08:57:31;93935.34;;;11.07;66.63
9676;BME280;4876;42.656;23.292;2024-02-26T08:59:59;93935.97;;;11.06;66.43
9676;BME280;4876;42.656;23.292;2024-02-26T09:02:25;93934.31;;;10.87;67.48
9676;BME280;4876;42.656;23.292;2024-02-26T09:04:51;93923.91;;;10.88;66.51
9676;BME280;4876;42.656;23.292;2024-02-26T09:07:18;93914.28;;;10.89;67.42
9676;BME280;4876;42.656;23.292;2024-02-26T09:09:44;93916.94;;;11.41;65.13
9676;BME280;4876;42.656;23.292;2024-02-26T09:12:09;93930.91;;;11.43;63.43
9676;BME280;4876;42.656;23.292;2024-02-26T09:14:35;93922.09;;;11.06;62.45
9676;BME280;4876;42.656;23.292;2024-02-26T09:17:00;93926.09;;;11.03;63.43
9676;BME280;4876;42.656;23.292;2024-02-26T09:19:26;93928.09;;;10.62;63.45
9676;BME280;4876;42.656;23.292;2024-02-26T09:21:53;93919.50;;;10.69;63.01
9676;BME280;4876;42.656;23.292;2024-02-26T09:24:23;93914.44;;;10.66;63.71
9676;BME280;4876;42.656;23.292;2024-02-26T09:26:48;93915.34;;;10.57;64.35
9676;BME280;4876;42.656;23.292;2024-02-26T09:29:14;93924.75;;;10.77;64.41
9676;BME280;4876;42.656;23.292;2024-02-26T09:31:39;93910.28;;;11.05;63.30
9676;BME280;4876;42.656;23.292;2024-02-26T09:34:07;93913.34;;;10.98;63.35
9676;BME280;4876;42.656;23.292;2024-02-26T09:36:33;93912.13;;;10.87;62.54
9676;BME280;4876;42.656;23.292;2024-02-26T09:38:59;93911.19;;;11.10;62.77
9676;BME280;4876;42.656;23.292;2024-02-26T09:41:27;93906.88;;;10.93;62.90
9676;BME280;4876;42.656;23.292;2024-02-26T09:43:56;93906.88;;;11.07;62.11
9676;BME280;4876;42.656;23.292;2024-02-26T09:46:23;93896.81;;;11.14;62.13
9676;BME280;4876;42.656;23.292;2024-02-26T09:48:49;93895.84;;;11.36;61.35
9676;BME280;4876;42.656;23.292;2024-02-26T09:51:16;93899.34;;;11.37;61.26
9676;BME280;4876;42.656;23.292;2024-02-26T09:53:43;93904.50;;;11.42;61.01
9676;BME280;4876;42.656;23.292;2024-02-26T09:56:12;93892.34;;;11.36;60.45
9676;BME280;4876;42.656;23.292;2024-02-26T09:58:39;93893.47;;;11.44;60.64
9676;BME280;4876;42.656;23.292;2024-02-26T10:01:11;93887.34;;;11.32;60.89
9676;BME280;4876;42.656;23.292;2024-02-26T10:03:40;93890.13;;;11.32;60.90
9676;BME280;4876;42.656;23.292;2024-02-26T10:06:08;93881.44;;;11.53;61.09
9676;BME280;4876;42.656;23.292;2024-02-26T10:08:35;93881.84;;;11.61;59.93
9676;BME280;4876;42.656;23.292;2024-02-26T10:11:00;93888.97;;;11.37;60.17
9676;BME280;4876;42.656;23.292;2024-02-26T10:13:26;93876.56;;;11.54;60.48
9676;BME280;4876;42.656;23.292;2024-02-26T10:15:52;93881.91;;;11.63;59.96
9676;BME280;4876;42.656;23.292;2024-02-26T10:18:18;93871.50;;;11.78;59.67
9676;BME280;4876;42.656;23.292;2024-02-26T10:21:04;93879.31;;;11.67;59.70
9676;BME280;4876;42.656;23.292;2024-02-26T10:23:30;93861.66;;;11.75;59.54
9676;BME280;4876;42.656;23.292;2024-02-26T10:25:56;93870.50;;;12.00;58.97
9676;BME280;4876;42.656;23.292;2024-02-26T10:28:22;93872.56;;;12.00;58.98
9676;BME280;4876;42.656;23.292;2024-02-26T10:30:48;93862.13;;;11.85;58.49
9676;BME280;4876;42.656;23.292;2024-02-26T10:33:14;93859.38;;;12.00;58.74
9676;BME280;4876;42.656;23.292;2024-02-26T10:35:45;93864.31;;;11.73;58.58
9676;BME280;4876;42.656;23.292;2024-02-26T10:38:11;93843.44;;;11.72;59.02
9676;BME280;4876;42.656;23.292;2024-02-26T10:40:37;93858.25;;;11.62;58.92
9676;BME280;4876;42.656;23.292;2024-02-26T10:43:03;93842.00;;;11.71;59.19
9676;BME280;4876;42.656;23.292;2024-02-26T10:45:28;93833.22;;;11.76;58.52
9676;BME280;4876;42.656;23.292;2024-02-26T10:47:54;93840.56;;;11.70;58.09
9676;BME280;4876;42.656;23.292;2024-02-26T10:50:19;93832.66;;;11.64;58.11
9676;BME280;4876;42.656;23.292;2024-02-26T10:52:45;93839.13;;;11.69;57.91
9676;BME280;4876;42.656;23.292;2024-02-26T10:55:17;93841.22;;;11.84;57.62
9676;BME280;4876;42.656;23.292;2024-02-26T10:57:45;93831.78;;;11.75;57.49
9676;BME280;4876;42.656;23.292;2024-02-26T11:00:15;93819.25;;;11.74;58.54
9676;BME280;4876;42.656;23.292;2024-02-26T11:02:41;93829.38;;;11.83;57.67
9676;BME280;4876;42.656;23.292;2024-02-26T11:05:11;93837.38;;;11.91;57.44
9676;BME280;4876;42.656;23.292;2024-02-26T11:07:37;93825.22;;;11.98;57.49
9676;BME280;4876;42.656;23.292;2024-02-26T11:10:04;93834.72;;;11.93;57.02
9676;BME280;4876;42.656;23.292;2024-02-26T11:12:31;93821.00;;;11.97;56.61
9676;BME280;4876;42.656;23.292;2024-02-26T11:14:57;93832.94;;;12.15;57.00
9676;BME280;4876;42.656;23.292;2024-02-26T11:17:28;93837.63;;;12.26;55.61
9676;BME280;4876;42.656;23.292;2024-02-26T11:19:57;93826.84;;;12.03;56.07
9676;BME280;4876;42.656;23.292;2024-02-26T11:22:26;93829.50;;;11.85;55.95
9676;BME280;4876;42.656;23.292;2024-02-26T11:24:56;93822.53;;;12.00;56.84
9676;BME280;4876;42.656;23.292;2024-02-26T11:27:34;93828.47;;;12.08;56.24
9676;BME280;4876;42.656;23.292;2024-02-26T11:30:02;93821.47;;;12.07;56.03
9676;BME280;4876;42.656;23.292;2024-02-26T11:32:30;93820.41;;;12.14;56.09
9676;BME280;4876;42.656;23.292;2024-02-26T11:34:57;93816.47;;;12.19;56.09
9676;BME280;4876;42.656;23.292;2024-02-26T11:37:24;93819.84;;;12.02;56.33
9676;BME280;4876;42.656;23.292;2024-02-26T11:39:51;93811.88;;;12.25;55.82
9676;BME280;4876;42.656;23.292;2024-02-26T11:42:23;93814.56;;;12.23;55.75
9676;BME280;4876;42.656;23.292;2024-02-26T11:44:49;93812.97;;;12.34;55.59
9676;BME280;4876;42.656;23.292;2024-02-26T11:47:19;93811.34;;;12.29;55.87
9676;BME280;4876;42.656;23.292;2024-02-26T11:49:45;93816.28;;;12.31;54.98
9676;BME280;4876;42.656;23.292;2024-02-26T11:52:13;93802.28;;;12.13;56.11
9676;BME280;4876;42.656;23.292;2024-02-26T11:54:57;93813.47;;;12.15;56.03
9676;BME280;4876;42.656;23.292;2024-02-26T11:57:30;93803.09;;;12.15;56.09
9676;BME280;4876;42.656;23.292;2024-02-26T12:00:16;93802.94;;;12.43;55.51
9676;BME280;4876;42.656;23.292;2024-02-26T12:02:52;93803.00;;;12.45;54.85
9676;BME280;4876;42.656;23.292;2024-02-26T12:05:26;93805.59;;;12.41;53.94
9676;BME280;4876;42.656;23.292;2024-02-26T12:08:01;93811.44;;;12.47;53.02
9676;BME280;4876;42.656;23.292;2024-02-26T12:10:47;93816.81;;;12.58;52.58
9676;BME280;4876;42.656;23.292;2024-02-26T12:13:15;93820.50;;;12.63;53.12
9676;BME280;4876;42.656;23.292;2024-02-26T12:15:42;93805.13;;;12.62;52.90
9676;BME280;4876;42.656;23.292;2024-02-26T12:18:10;93812.78;;;12.46;52.89
9676;BME280;4876;42.656;23.292;2024-02-26T12:20:40;93827.41;;;12.46;52.58
9676;BME280;4876;42.656;23.292;2024-02-26T12:23:06;93822.66;;;12.49;52.93
9676;BME280;4876;42.656;23.292;2024-02-26T12:25:32;93813.78;;;12.52;52.71
9676;BME280;4876;42.656;23.292;2024-02-26T12:27:59;93815.03;;;12.49;52.40
9676;BME280;4876;42.656;23.292;2024-02-26T12:30:25;93812.50;;;12.55;52.31
9676;BME280;4876;42.656;23.292;2024-02-26T12:32:52;93822.91;;;12.55;52.76
9676;BME280;4876;42.656;23.292;2024-02-26T12:35:22;93821.66;;;12.73;52.26
9676;BME280;4876;42.656;23.292;2024-02-26T12:37:48;93813.72;;;12.83;52.29
9676;BME280;4876;42.656;23.292;2024-02-26T12:40:14;93818.22;;;12.91;51.13
9676;BME280;4876;42.656;23.292;2024-02-26T12:42:40;93815.19;;;12.84;50.84
9676;BME280;4876;42.656;23.292;2024-02-26T12:45:10;93814.91;;;12.78;51.23
9676;BME280;4876;42.656;23.292;2024-02-26T12:47:40;93816.69;;;12.87;50.94
9676;BME280;4876;42.656;23.292;2024-02-26T12:50:07;93812.28;;;13.14;50.95
9676;BME280;4876;42.656;23.292;2024-02-26T12:52:37;93809.34;;;13.27;49.23
9676;BME280;4876;42.656;23.292;2024-02-26T12:55:05;93814.09;;;13.25;49.90
9676;BME280;4876;42.656;23.292;2024-02-26T12:57:33;93805.78;;;13.42;49.07
9676;BME280;4876;42.656;23.292;2024-02-26T13:00:02;93813.44;;;13.42;49.42
9676;BME280;4876;42.656;23.292;2024-02-26T13:02:30;93812.84;;;13.28;49.28
9676;BME280;4876;42.656;23.292;2024-02-26T13:04:56;93814.03;;;13.23;49.02
9676;BME280;4876;42.656;23.292;2024-02-26T13:07:22;93810.06;;;13.28;49.28
9676;BME280;4876;42.656;23.292;2024-02-26T13:09:48;93810.56;;;13.40;48.98
9676;BME280;4876;42.656;23.292;2024-02-26T13:12:13;93807.59;;;13.36;48.45
9676;BME280;4876;42.656;23.292;2024-02-26T13:14:40;93806.06;;;13.33;47.00